WetterOnline ( http://www.wetteronline.de )

Wetter aktuell Bonn

Aktuelles Wetter: Andernach (75m)

6-stündlich | Neueste Meldungen
Ortszeit Temperatur Wetter
So, 15.07. 20:00 28.8° C bewölkt
So, 15.07. 14:00 28.5° C wolkenlos
So, 15.07. 8:00 18.3° C wolkenlos
So, 15.07. 2:00 16.8° C wolkenlos
Sa, 14.07. 20:00 27.2° C leicht bewölkt
Sa, 14.07. 14:00 28.8° C wolkenlos
Sa, 14.07. 8:00 17.0° C bedeckt
Sa, 14.07. 2:00 16.1° C bedeckt
Ortszeit Temperatur Wetter
So, 15.07. 21:30 25.5° C wolkig
So, 15.07. 21:20 25.5° C wolkig
So, 15.07. 21:10 26.3° C wolkig
So, 15.07. 21:00 27.8° C wolkig
So, 15.07. 20:50 27.8° C wolkig
So, 15.07. 20:40 27.9° C wolkig
So, 15.07. 20:30 28.3° C wolkig
So, 15.07. 20:00 28.8° C bewölkt
So, 15.07. 19:30 28.8° C wolkig
So, 15.07. 19:00 29.8° C leicht bewölkt
So, 15.07. 18:30 29.8° C wolkenlos
Ortszeit Relative Feuchte Sichtweite
So, 15.07. 20:00 26% 70 km
So, 15.07. 14:00 26% 65 km
So, 15.07. 8:00 73% 30 km
So, 15.07. 2:00 77% 30 km
Sa, 14.07. 20:00 37% 45 km
Sa, 14.07. 14:00 31% 60 km
Sa, 14.07. 8:00 84% 20 km
Sa, 14.07. 2:00 87% 26 km
Ortszeit Relative Feuchte Sichtweite
So, 15.07. 21:30 42% 70 km
So, 15.07. 21:20 42% -
So, 15.07. 21:10 37% -
So, 15.07. 21:00 29% 70 km
So, 15.07. 20:50 29% -
So, 15.07. 20:40 28% -
So, 15.07. 20:30 28% 70 km
So, 15.07. 20:00 26% 70 km
So, 15.07. 19:30 26% 70 km
So, 15.07. 19:00 25% 70 km
So, 15.07. 18:30 24% 70 km
Ortszeit Niederschlagsmenge Niederschlagsart
So, 15.07. 20:00 0.0 l/m2 in 12 Std. -
So, 15.07. 14:00 0.0 l/m2 in 6 Std. -
So, 15.07. 8:00 0.0 l/m2 in 12 Std. -
So, 15.07. 2:00 0.0 l/m2 in 6 Std. -
Sa, 14.07. 20:00 0.0 l/m2 in 12 Std. -
Sa, 14.07. 14:00 0.0 l/m2 in 6 Std. -
Sa, 14.07. 8:00 0.0 l/m2 in 12 Std. -
Sa, 14.07. 2:00 0.0 l/m2 in 6 Std. -
Ortszeit Niederschlagsmenge Niederschlagsart
So, 15.07. 21:30 0.0 l/m2 in 1 Std. -
So, 15.07. 21:20 keine Meldung -
So, 15.07. 21:10 keine Meldung -
So, 15.07. 21:00 0.0 l/m2 in 1 Std. -
So, 15.07. 20:50 keine Meldung -
So, 15.07. 20:40 keine Meldung -
So, 15.07. 20:30 0.0 l/m2 in 1 Std. -
So, 15.07. 20:00 0.0 l/m2 in 1 Std. -
So, 15.07. 19:30 0.0 l/m2 in 1 Std. -
So, 15.07. 19:00 0.0 l/m2 in 1 Std. -
So, 15.07. 18:30 0.0 l/m2 in 1 Std. -
Ortszeit Stärke Spitze Richtung
km/h Bft. km/h Grad Sektor
So, 15.07. 20:00 9 2 26 350° N
So, 15.07. 14:00 9 2 19 60° NO
So, 15.07. 8:00 4 1 11 160° S
So, 15.07. 2:00 6 1 19 210° SW
Sa, 14.07. 20:00 11 2 29 350° N
Sa, 14.07. 14:00 7 2 14 230° SW
Sa, 14.07. 8:00 0 0 7 - -
Sa, 14.07. 2:00 4 1 11 200° S
Ortszeit Stärke Spitze Richtung
km/h Bft. km/h Grad Sektor
So, 15.07. 21:30 7 2 18 210° SW
So, 15.07. 21:20 7 2 - 210° SW
So, 15.07. 21:10 7 2 - 220° SW
So, 15.07. 21:00 9 2 19 350° N
So, 15.07. 20:50 9 2 - 350° N
So, 15.07. 20:40 9 2 - 340° N
So, 15.07. 20:30 9 2 17 350° N
So, 15.07. 20:00 9 2 17 350° N
So, 15.07. 19:30 9 2 17 340° N
So, 15.07. 19:00 7 2 18 330° NW
So, 15.07. 18:30 11 2 18 40° NO
Ortszeit Untergrenze Bedeckung Gattung
total tief tief mittel hoch
So, 15.07. 20:00 3300 m 8/8 6/8 - - -
So, 15.07. 14:00 - 0/8 0/8 - - -
So, 15.07. 8:00 - 0/8 0/8 - - -
So, 15.07. 2:00 - 0/8 0/8 - - -
Sa, 14.07. 20:00 3900 m 3/8 3/8 - - -
Sa, 14.07. 14:00 1800 m 0/8 0/8 - - -
Sa, 14.07. 8:00 2400 m 8/8 8/8 - - -
Sa, 14.07. 2:00 4200 m 8/8 8/8 - - -
Ortszeit Bedeckungsgrad in Achtel und Wolkenuntergrenze
So, 15.07. 21:30 2(2700m) 8(7800m) 8(9000m)
So, 15.07. 21:20 2(2700m) 8(7800m) 8(9000m)
So, 15.07. 21:10 1(2700m) 8(8100m) 8(9000m)
So, 15.07. 21:00 3(3000m) 8(8100m) 8(9000m)
So, 15.07. 20:50 3(3000m) 8(8100m) 8(9000m)
So, 15.07. 20:40 3(3000m) 7(8100m) 7(8700m)
So, 15.07. 20:30 5(3000m) 7(8400m) 7(8700m)
So, 15.07. 20:00 6(3300m) 8(8400m) 8(8400m)
So, 15.07. 19:30 8(9000m) 8(8700m)
So, 15.07. 19:00 5(9000m)
So, 15.07. 18:30 keine Wolken
Ortszeit Luftdruck NN (hPa) Tendenz (hPa in 3 Std.)
So, 15.07. 20:00 1012 - 0,6
So, 15.07. 14:00 1015 - 1,7
So, 15.07. 8:00 1017 - 0,2
So, 15.07. 2:00 1018 + 0,3
Sa, 14.07. 20:00 1016 - 0,4
Sa, 14.07. 14:00 1018 - 1,6
Sa, 14.07. 8:00 1020 + 0,4
Sa, 14.07. 2:00 1020 + 0,2
Ortszeit Luftdruck NN (hPa) Tendenz (hPa in 3 Std.)
So, 15.07. 21:30 1013 + 0,1
So, 15.07. 21:20 1013 keine Meldung
So, 15.07. 21:10 1013 keine Meldung
So, 15.07. 21:00 1013 - 0,5
So, 15.07. 20:50 1013 keine Meldung
So, 15.07. 20:40 1013 keine Meldung
So, 15.07. 20:30 1012 - 0,6
So, 15.07. 20:00 1012 - 0,6
So, 15.07. 19:30 1012 - 1,1
So, 15.07. 19:00 1012 - 1,1
So, 15.07. 18:30 1013 - 1,0
Ortszeit Schneehöhe (cm)
So, 15.07. 20:00 -
So, 15.07. 14:00 -
So, 15.07. 8:00 -
So, 15.07. 2:00 -
Sa, 14.07. 20:00 -
Sa, 14.07. 14:00 -
Sa, 14.07. 8:00 -
Sa, 14.07. 2:00 -
Ortszeit Schneehöhe (cm)
So, 15.07. 21:30 -
So, 15.07. 21:20 -
So, 15.07. 21:10 -
So, 15.07. 21:00 -
So, 15.07. 20:50 -
So, 15.07. 20:40 -
So, 15.07. 20:30 -
So, 15.07. 20:00 -
So, 15.07. 19:30 -
So, 15.07. 19:00 -
So, 15.07. 18:30 -
Link zu dieser Seite / Seite empfehlen

Das Wetter in ...